Time;durP1;ratioP1;P1;durP2;ratioP2;P2;SDS_P1;SDS_P2;PMS_P1;PMS_P2;Temp;Humidity;BMP_temperature;BMP_pressure;BME280_temperature;BME280_humidity;BME280_pressure;Samples;Min_cycle;Max_cycle;Signal;HPM_P1;HPM_P2
2021/03/01 00:00:09;;;;;;;27.20;14.30;;;;;;;3.41;100.00;102785.56;4956475;28;20054;-51
2021/03/01 00:02:36;;;;;;;29.92;14.23;;;;;;;3.29;100.00;102780.34;4954238;28;20912;-50
2021/03/01 00:05:04;;;;;;;28.48;15.15;;;;;;;2.77;100.00;102775.69;4956379;28;20480;-52
2021/03/01 00:07:31;;;;;;;24.60;13.90;;;;;;;2.77;100.00;102788.34;4953697;28;20051;-52
2021/03/01 00:09:57;;;;;;;28.67;13.77;;;;;;;2.90;100.00;102784.34;4957116;28;20498;-49
2021/03/01 00:12:24;;;;;;;26.10;13.02;;;;;;;3.20;100.00;102787.13;4953851;28;20047;-48
2021/03/01 00:14:50;;;;;;;25.35;13.10;;;;;;;3.44;100.00;102790.03;4959578;28;21016;-52
2021/03/01 00:17:17;;;;;;;27.40;14.02;;;;;;;3.66;99.56;102797.88;4954191;28;20076;-52
2021/03/01 00:19:44;;;;;;;28.05;15.43;;;;;;;3.72;99.18;102800.94;4954732;28;20145;-47
2021/03/01 00:22:10;;;;;;;33.88;17.23;;;;;;;3.69;98.33;102786.34;4954988;28;20129;-49
2021/03/01 00:24:37;;;;;;;30.05;15.57;;;;;;;3.31;99.90;102788.94;4953979;28;20059;-52
2021/03/01 00:27:05;;;;;;;29.40;14.30;;;;;;;3.32;100.00;102792.38;4955564;28;20114;-51
2021/03/01 00:29:31;;;;;;;28.25;13.77;;;;;;;3.36;100.00;102791.00;4951060;28;20047;-52
2021/03/01 00:31:58;;;;;;;26.13;13.15;;;;;;;3.45;100.00;102789.28;4959439;28;20182;-52
2021/03/01 00:34:25;;;;;;;24.00;13.65;;;;;;;3.31;100.00;102786.41;4952738;28;20051;-56
2021/03/01 00:36:52;;;;;;;27.65;13.45;;;;;;;3.55;100.00;102774.13;4955929;28;20074;-48
2021/03/01 00:39:19;;;;;;;28.20;13.65;;;;;;;3.23;100.00;102774.72;4953122;28;20047;-47
2021/03/01 00:41:45;;;;;;;29.52;14.57;;;;;;;3.05;100.00;102778.13;4954603;28;20062;-50
2021/03/01 00:44:12;;;;;;;32.08;14.88;;;;;;;2.90;100.00;102767.53;4954876;28;20157;-52
2021/03/01 00:46:38;;;;;;;29.77;14.65;;;;;;;2.95;100.00;102760.34;4953471;28;20829;-51
2021/03/01 00:49:05;;;;;;;31.23;15.27;;;;;;;2.80;100.00;102765.81;4955313;28;20157;-52
2021/03/01 00:51:32;;;;;;;30.00;14.00;;;;;;;3.13;100.00;102771.22;4956816;28;20051;-56
2021/03/01 00:53:58;;;;;;;34.28;15.65;;;;;;;2.68;100.00;102773.94;4955965;28;20051;-53
2021/03/01 00:56:25;;;;;;;27.58;13.68;;;;;;;2.83;100.00;102767.75;4952292;28;20054;-54
2021/03/01 00:58:51;;;;;;;29.33;14.43;;;;;;;2.81;100.00;102765.06;4955431;28;20065;-52
2021/03/01 01:01:18;;;;;;;28.33;14.02;;;;;;;2.75;100.00;102764.53;4953448;28;20051;-48
2021/03/01 01:03:45;;;;;;;28.90;14.63;;;;;;;2.67;100.00;102760.41;4954167;28;20134;-48
2021/03/01 01:06:11;;;;;;;29.83;14.30;;;;;;;3.10;100.00;102761.75;4954198;28;20054;-52
2021/03/01 01:08:38;;;;;;;28.15;13.82;;;;;;;2.89;100.00;102762.34;4953135;28;20055;-51
2021/03/01 01:11:04;;;;;;;33.70;15.30;;;;;;;2.78;100.00;102753.81;4955088;28;20050;-52
2021/03/01 01:13:31;;;;;;;33.40;14.57;;;;;;;2.64;100.00;102750.03;4956508;28;20146;-52
2021/03/01 01:15:59;;;;;;;31.23;14.48;;;;;;;3.05;100.00;102766.41;4952061;28;20129;-54
2021/03/01 01:18:26;;;;;;;29.30;14.35;;;;;;;2.74;100.00;102757.69;4951938;28;20501;-50
2021/03/01 01:20:53;;;;;;;33.03;14.98;;;;;;;3.05;100.00;102768.00;4955542;28;20047;-53
2021/03/01 01:23:19;;;;;;;33.53;14.98;;;;;;;2.60;100.00;102760.59;4952308;28;20043;-52
2021/03/01 01:25:47;;;;;;;33.67;14.80;;;;;;;2.53;100.00;102751.56;4954352;28;20126;-49
2021/03/01 01:28:13;;;;;;;30.88;15.38;;;;;;;2.42;100.00;102771.56;4953384;28;20051;-54
2021/03/01 01:30:40;;;;;;;33.45;14.95;;;;;;;2.84;100.00;102768.63;4953181;28;20047;-54
2021/03/01 01:33:06;;;;;;;32.63;14.77;;;;;;;2.86;100.00;102757.88;4954481;28;20057;-48
2021/03/01 01:35:33;;;;;;;30.85;14.75;;;;;;;2.92;100.00;102755.03;4952179;28;20051;-52
2021/03/01 01:38:00;;;;;;;27.45;13.77;;;;;;;3.15;100.00;102763.03;4955060;28;20074;-51
2021/03/01 01:40:26;;;;;;;36.63;16.08;;;;;;;2.60;100.00;102758.09;4952094;28;20051;-52
2021/03/01 01:42:53;;;;;;;34.17;14.68;;;;;;;2.57;100.00;102752.72;4955589;28;20058;-49
2021/03/01 01:45:23;;;;;;;33.60;14.85;;;;;;;2.82;100.00;102738.16;4953015;28;20051;-52
2021/03/01 01:47:52;;;;;;;32.25;13.98;;;;;;;2.88;100.00;102746.28;4954473;28;20496;-52
2021/03/01 01:50:21;;;;;;;31.65;14.80;;;;;;;2.65;100.00;102740.78;4952572;28;20134;-47
2021/03/01 01:52:50;;;;;;;33.53;15.00;;;;;;;2.58;100.00;102744.38;4957914;28;20059;-55
2021/03/01 01:55:17;;;;;;;30.77;14.73;;;;;;;2.78;100.00;102739.50;4956996;28;20058;-57
2021/03/01 01:57:44;;;;;;;32.80;14.77;;;;;;;2.66;100.00;102735.84;4957254;28;20055;-51
2021/03/01 02:01:00;;;;;;;32.28;15.70;;;;;;;2.99;100.00;102730.41;4957518;28;20087;-53
2021/03/01 02:03:18;;;;;;;31.83;15.13;;;;;;;2.74;100.00;102734.03;4954323;28;20079;-50
2021/03/01 02:05:47;;;;;;;33.97;14.48;;;;;;;2.80;100.00;102730.41;4957481;28;20183;-49
2021/03/01 02:08:27;;;;;;;30.40;14.68;;;;;;;2.73;100.00;102742.38;4956919;28;20051;-53
2021/03/01 02:11:10;;;;;;;28.15;13.88;;;;;;;2.85;100.00;102737.50;4962808;28;20049;-48
2021/03/01 02:13:45;;;;;;;30.45;14.57;;;;;;;2.89;100.00;102747.16;4956221;28;20364;-54
2021/03/01 02:16:30;;;;;;;30.27;14.05;;;;;;;2.90;100.00;102746.41;4959439;28;20038;-51
2021/03/01 02:18:58;;;;;;;31.20;15.40;;;;;;;2.55;100.00;102749.19;4955204;28;20665;-49
2021/03/01 02:21:24;;;;;;;31.80;14.55;;;;;;;2.70;100.00;102744.63;4954159;28;20484;-50
2021/03/01 02:23:51;;;;;;;29.80;15.07;;;;;;;2.90;100.00;102751.47;4958049;28;20051;-54
2021/03/01 02:26:23;;;;;;;31.48;15.70;;;;;;;2.67;100.00;102745.22;4956032;28;20756;-51
2021/03/01 02:28:53;;;;;;;31.42;14.32;;;;;;;2.64;100.00;102754.19;4957788;28;20409;-51
2021/03/01 02:31:25;;;;;;;35.10;15.25;;;;;;;2.80;100.00;102755.69;4955578;28;20058;-49
2021/03/01 02:33:55;;;;;;;31.52;13.75;;;;;;;3.13;100.00;102750.97;4957818;28;20051;-53
2021/03/01 02:36:27;;;;;;;30.77;15.13;;;;;;;2.61;100.00;102746.31;4955171;28;20056;-52
2021/03/01 02:38:57;;;;;;;35.97;15.40;;;;;;;2.90;100.00;102756.53;4958320;28;20188;-55
2021/03/01 02:41:27;;;;;;;29.52;15.30;;;;;;;2.78;100.00;102751.28;4955406;28;20043;-53
2021/03/01 02:43:53;;;;;;;31.38;14.77;;;;;;;2.95;100.00;102741.00;4958285;28;20047;-51
2021/03/01 02:46:21;;;;;;;33.20;15.35;;;;;;;2.74;100.00;102741.63;4955527;28;20054;-54
2021/03/01 02:48:49;;;;;;;35.58;15.75;;;;;;;2.67;100.00;102755.34;4957049;28;20091;-54
2021/03/01 02:51:17;;;;;;;31.08;15.13;;;;;;;2.83;100.00;102749.16;4960378;28;20047;-52
2021/03/01 02:53:44;;;;;;;29.90;14.25;;;;;;;3.15;100.00;102752.91;4956458;28;20066;-52
2021/03/01 02:56:15;;;;;;;29.85;15.00;;;;;;;3.15;100.00;102752.91;4956689;28;20043;-51
2021/03/01 02:58:44;;;;;;;32.17;14.27;;;;;;;3.41;99.71;102756.84;4956174;28;20047;-53
2021/03/01 03:01:11;;;;;;;27.63;14.05;;;;;;;2.67;100.00;102755.34;4958666;28;20527;-54
2021/03/01 03:03:40;;;;;;;31.17;14.43;;;;;;;2.84;100.00;102750.94;4955430;28;20051;-50
2021/03/01 03:06:16;;;;;;;28.45;14.02;;;;;;;3.13;100.00;102754.41;4956959;28;20050;-55
2021/03/01 03:08:44;;;;;;;33.63;14.27;;;;;;;2.90;100.00;102746.41;4956031;28;20103;-49
2021/03/01 03:11:13;;;;;;;28.83;13.38;;;;;;;3.05;100.00;102750.28;4956248;28;20713;-54
2021/03/01 03:13:41;;;;;;;29.13;13.75;;;;;;;3.18;100.00;102758.22;4959126;28;20047;-54
2021/03/01 03:16:09;;;;;;;30.70;14.27;;;;;;;3.50;99.46;102750.94;4958117;28;20128;-48
2021/03/01 03:18:39;;;;;;;31.98;14.23;;;;;;;2.91;100.00;102758.28;4954810;28;20055;-54
2021/03/01 03:21:05;;;;;;;29.70;13.80;;;;;;;3.00;100.00;102749.88;4957061;28;20057;-53
2021/03/01 03:23:32;;;;;;;31.85;13.85;;;;;;;3.28;100.00;102753.25;4954090;28;20046;-55
2021/03/01 03:25:59;;;;;;;30.77;14.57;;;;;;;3.30;98.69;102753.38;4957539;28;20054;-48
2021/03/01 03:28:26;;;;;;;28.33;14.02;;;;;;;3.24;100.00;102753.72;4954664;28;20077;-54
2021/03/01 03:30:53;;;;;;;27.00;14.20;;;;;;;2.94;100.00;102748.47;4957244;28;20042;-54
2021/03/01 03:33:20;;;;;;;29.00;14.77;;;;;;;2.88;100.00;102755.50;4954982;28;20059;-55
2021/03/01 03:35:46;;;;;;;26.58;13.10;;;;;;;2.69;100.00;102747.91;4956514;28;20062;-54
2021/03/01 03:38:23;;;;;;;28.27;13.25;;;;;;;3.49;100.00;102750.81;4955830;28;20047;-54
2021/03/01 03:40:53;;;;;;;30.35;14.73;;;;;;;3.20;99.32;102756.75;4956446;28;20054;-51
2021/03/01 03:43:21;;;;;;;31.38;15.63;;;;;;;2.82;100.00;102765.97;4954228;28;20088;-55
2021/03/01 03:45:51;;;;;;;29.75;13.70;;;;;;;3.08;100.00;102754.75;4955480;28;20162;-53
2021/03/01 03:48:21;;;;;;;29.92;14.90;;;;;;;3.48;98.96;102767.66;4957337;28;20206;-50
2021/03/01 03:50:54;;;;;;;30.52;14.32;;;;;;;3.23;99.77;102767.13;4961230;28;20066;-54
2021/03/01 03:53:26;;;;;;;28.10;14.57;;;;;;;3.05;100.00;102761.34;4954100;28;20054;-53
2021/03/01 03:55:56;;;;;;;26.50;14.13;;;;;;;3.40;100.00;102761.00;4956242;28;20051;-56
2021/03/01 03:58:27;;;;;;;30.70;14.77;;;;;;;3.51;99.17;102759.41;4953825;28;20416;-51
2021/03/01 04:00:56;;;;;;;29.48;14.15;;;;;;;3.53;98.31;102765.53;4956588;28;20047;-49
2021/03/01 04:03:25;;;;;;;31.95;15.15;;;;;;;3.23;99.21;102767.13;4953746;28;20058;-53
2021/03/01 04:05:55;;;;;;;30.58;14.73;;;;;;;3.25;100.00;102768.16;4959760;28;20988;-57
2021/03/01 04:08:24;;;;;;;29.30;14.63;;;;;;;3.45;99.49;102769.03;4960847;28;20106;-50
2021/03/01 04:10:53;;;;;;;30.73;14.52;;;;;;;3.10;99.90;102765.88;4962419;28;20061;-54
2021/03/01 04:13:24;;;;;;;32.13;14.60;;;;;;;3.25;100.00;102765.63;4966893;28;20820;-52
2021/03/01 04:15:50;;;;;;;32.60;15.77;;;;;;;3.01;100.00;102756.75;4955725;28;20044;-54
2021/03/01 04:18:27;;;;;;;32.08;15.30;;;;;;;2.92;100.00;102762.63;4954246;28;20051;-51
2021/03/01 04:20:56;;;;;;;31.17;14.68;;;;;;;2.97;100.00;102766.47;4955700;28;20051;-52
2021/03/01 04:23:24;;;;;;;33.38;15.80;;;;;;;3.17;100.00;102769.13;4953106;28;20202;-55
2021/03/01 04:25:51;;;;;;;32.45;15.45;;;;;;;3.07;100.00;102761.47;4955374;28;20062;-55
2021/03/01 04:28:19;;;;;;;37.60;16.05;;;;;;;3.15;100.00;102757.97;4954019;28;20568;-50
2021/03/01 04:30:47;;;;;;;34.95;15.60;;;;;;;3.17;100.00;102761.53;4954656;28;20051;-57
2021/03/01 04:33:17;;;;;;;32.70;15.18;;;;;;;3.21;100.00;102757.63;4954884;28;20051;-52
2021/03/01 04:35:47;;;;;;;32.65;14.30;;;;;;;3.19;100.00;102764.19;4955591;28;20055;-52
2021/03/01 04:38:13;;;;;;;32.35;13.60;;;;;;;3.22;100.00;102765.34;4952902;28;20054;-55
2021/03/01 04:40:40;;;;;;;34.10;16.48;;;;;;;3.01;100.00;102760.94;4954965;28;20058;-47
2021/03/01 04:43:12;;;;;;;35.50;15.00;;;;;;;3.03;100.00;102755.22;4957731;28;20051;-53
2021/03/01 04:45:40;;;;;;;35.55;15.15;;;;;;;3.17;100.00;102759.00;4954906;28;20051;-49
2021/03/01 04:48:10;;;;;;;33.50;15.50;;;;;;;3.17;100.00;102761.53;4957532;28;20156;-54
2021/03/01 04:50:38;;;;;;;33.70;15.82;;;;;;;2.89;100.00;102763.22;4954740;28;20126;-48
2021/03/01 04:53:05;;;;;;;32.03;15.80;;;;;;;3.04;100.00;102758.66;4955959;28;20129;-55
2021/03/01 04:55:33;;;;;;;37.40;16.10;;;;;;;3.02;100.00;102757.63;4953891;28;20047;-56
2021/03/01 04:58:00;;;;;;;32.72;15.60;;;;;;;3.10;100.00;102760.81;4956069;28;20054;-48
2021/03/01 05:00:28;;;;;;;32.33;14.35;;;;;;;3.65;99.86;102760.63;4953873;28;20070;-47
2021/03/01 05:03:12;;;;;;;34.17;15.48;;;;;;;3.22;100.00;102762.81;4960433;28;20050;-46
2021/03/01 05:05:41;;;;;;;29.25;14.77;;;;;;;3.09;100.00;102751.47;4954535;28;20057;-46
2021/03/01 05:08:15;;;;;;;30.25;15.02;;;;;;;3.05;100.00;102756.28;4953149;28;20074;-49
2021/03/01 05:10:43;;;;;;;32.17;15.02;;;;;;;3.09;100.00;102754.88;4954610;28;20059;-47
2021/03/01 05:13:10;;;;;;;32.95;14.65;;;;;;;2.94;100.00;102751.88;4959621;28;20507;-43
2021/03/01 05:15:37;;;;;;;33.22;15.27;;;;;;;3.24;100.00;102761.31;4953978;28;20055;-44
2021/03/01 05:18:05;;;;;;;34.90;15.30;;;;;;;3.27;100.00;102764.09;4956357;28;20053;-51
2021/03/01 05:20:32;;;;;;;34.22;16.10;;;;;;;3.16;100.00;102757.22;4953697;28;20054;-53
2021/03/01 05:22:59;;;;;;;34.53;15.60;;;;;;;3.27;100.00;102756.50;4957381;28;20150;-47
2021/03/01 05:25:26;;;;;;;38.08;16.30;;;;;;;2.97;100.00;102762.28;4957589;28;20050;-51
2021/03/01 05:27:54;;;;;;;33.70;15.45;;;;;;;3.18;100.00;102758.22;4956373;28;20126;-52
2021/03/01 05:30:22;;;;;;;31.38;15.68;;;;;;;3.35;100.00;102766.44;4954412;28;20075;-46
2021/03/01 05:32:48;;;;;;;32.13;15.52;;;;;;;3.05;100.00;102766.41;4955955;28;20587;-46
2021/03/01 05:35:15;;;;;;;33.22;15.10;;;;;;;2.97;100.00;102774.06;4954581;28;20046;-48
2021/03/01 05:37:41;;;;;;;33.08;16.75;;;;;;;3.32;100.00;102777.16;4954471;28;20062;-47
2021/03/01 05:40:09;;;;;;;32.50;15.93;;;;;;;3.37;100.00;102765.81;4958695;28;20531;-46
2021/03/01 05:42:37;;;;;;;29.77;16.17;;;;;;;3.57;100.00;102772.63;4960531;28;20583;-50
2021/03/01 05:45:06;;;;;;;33.35;16.35;;;;;;;3.86;97.80;102767.53;4955373;28;20051;-51
2021/03/01 05:47:35;;;;;;;32.20;16.63;;;;;;;3.05;100.00;102768.94;4951664;28;20074;-54
2021/03/01 05:50:05;;;;;;;38.25;17.00;;;;;;;3.01;100.00;102776.09;4959348;28;20050;-50
2021/03/01 05:52:34;;;;;;;33.53;15.88;;;;;;;2.99;100.00;102780.13;4958486;28;20054;-46
2021/03/01 05:55:01;;;;;;;35.38;16.77;;;;;;;2.98;100.00;102785.94;4956428;28;20057;-48
2021/03/01 05:57:28;;;;;;;36.72;16.67;;;;;;;3.06;100.00;102795.13;4953208;28;20051;-53
2021/03/01 05:59:57;;;;;;;35.72;16.13;;;;;;;3.16;100.00;102800.25;4959061;28;20039;-50
2021/03/01 06:02:25;;;;;;;34.63;16.65;;;;;;;3.34;100.00;102805.19;4964147;28;20050;-42
2021/03/01 06:04:53;;;;;;;32.35;15.35;;;;;;;3.50;100.00;102803.22;4963764;28;20094;-44
2021/03/01 06:07:20;;;;;;;31.77;16.33;;;;;;;3.08;100.00;102795.25;4964049;28;20050;-46
2021/03/01 06:09:47;;;;;;;33.45;15.73;;;;;;;3.18;100.00;102803.78;4959838;28;20528;-46
2021/03/01 06:12:14;;;;;;;34.70;15.82;;;;;;;3.30;100.00;102806.53;4955347;28;20047;-48
2021/03/01 06:14:41;;;;;;;33.38;15.07;;;;;;;3.80;99.68;102805.03;4955054;28;20260;-50
2021/03/01 06:17:19;;;;;;;25.90;13.20;;;;;;;3.79;99.19;102811.75;4950042;28;20141;-46
2021/03/01 06:19:47;;;;;;;31.95;14.60;;;;;;;3.31;100.00;102813.38;4952440;28;20488;-49
2021/03/01 06:22:15;;;;;;;28.10;14.20;;;;;;;3.40;100.00;102806.59;4954812;28;20078;-49
2021/03/01 06:24:43;;;;;;;29.33;15.23;;;;;;;3.46;100.00;102813.84;4954828;28;20059;-51
2021/03/01 06:27:11;;;;;;;32.00;15.25;;;;;;;3.55;100.00;102815.53;4957321;28;20049;-50
2021/03/01 06:30:05;;;;;;;29.88;14.73;;;;;;;3.78;99.49;102821.75;4952772;28;20057;-49
2021/03/01 06:32:32;;;;;;;30.02;14.20;;;;;;;3.68;99.27;102826.75;4952447;28;20047;-46
2021/03/01 06:35:00;;;;;;;32.13;15.10;;;;;;;3.30;100.00;102827.69;4955993;28;20057;-53
2021/03/01 06:37:27;;;;;;;31.58;15.57;;;;;;;3.22;100.00;102823.56;4953840;28;20051;-48
2021/03/01 06:39:55;;;;;;;30.27;15.30;;;;;;;3.40;100.00;102821.78;4958053;28;20050;-46
2021/03/01 06:42:30;;;;;;;35.63;15.40;;;;;;;3.10;100.00;102813.97;4959432;28;20085;-46
2021/03/01 06:44:57;;;;;;;34.75;15.65;;;;;;;3.41;100.00;102820.16;4955579;28;20042;-47
2021/03/01 06:47:45;;;;;;;37.13;18.55;;;;;;;3.57;99.45;102816.59;4955863;28;20051;-43
2021/03/01 06:50:47;;;;;;;28.05;15.40;;;;;;;3.45;100.00;102812.97;4955655;28;20086;-45
2021/03/01 06:53:15;;;;;;;33.08;15.48;;;;;;;3.69;100.00;102819.28;4959574;28;20050;-48
2021/03/01 06:56:02;;;;;;;29.77;14.65;;;;;;;4.15;98.65;102815.66;4956561;28;20138;-52
2021/03/01 06:58:43;;;;;;;29.98;15.38;;;;;;;4.20;97.10;102816.94;4958214;28;20138;-50
2021/03/01 07:01:17;;;;;;;31.00;15.18;;;;;;;3.67;99.95;102809.78;4959787;28;20043;-50
2021/03/01 07:03:47;;;;;;;29.67;14.35;;;;;;;3.79;99.15;102813.38;4961929;28;20054;-49
2021/03/01 07:06:14;;;;;;;29.15;14.90;;;;;;;3.96;98.55;102814.84;4957176;28;20158;-45
2021/03/01 07:08:54;;;;;;;25.90;13.70;;;;;;;3.99;98.84;102812.59;4956806;28;20050;-50
2021/03/01 07:11:31;;;;;;;29.10;13.45;;;;;;;4.00;97.49;102820.31;4959781;28;20055;-47
2021/03/01 07:14:04;;;;;;;28.70;14.57;;;;;;;4.38;96.63;102820.16;4957825;28;20058;-51
2021/03/01 07:16:49;;;;;;;26.55;14.70;;;;;;;4.01;96.84;102811.06;4955241;28;20054;-44
2021/03/01 07:19:21;;;;;;;20.48;10.15;;;;;;;4.09;96.83;102813.50;4959726;28;20102;-49
2021/03/01 07:21:52;;;;;;;26.45;14.13;;;;;;;4.03;97.55;102814.63;4957334;28;20047;-51
2021/03/01 07:24:21;;;;;;;29.10;14.52;;;;;;;3.80;98.22;102815.19;4956192;28;20079;-43
2021/03/01 07:26:54;;;;;;;28.40;14.48;;;;;;;4.05;97.80;102819.06;4956698;28;20058;-48
2021/03/01 07:29:25;;;;;;;31.45;14.77;;;;;;;4.62;96.14;102820.44;4955867;28;20063;-51
2021/03/01 07:32:03;;;;;;;30.90;14.80;;;;;;;4.50;94.93;102821.22;4957673;28;20054;-48
2021/03/01 07:34:31;;;;;;;29.42;14.75;;;;;;;4.97;92.79;102820.84;4955386;28;20051;-46
2021/03/01 07:36:59;;;;;;;29.63;13.88;;;;;;;4.58;94.56;102825.28;4958033;28;20042;-46
2021/03/01 07:39:28;;;;;;;31.92;15.70;;;;;;;4.21;96.08;102818.75;4955013;28;20054;-48
2021/03/01 07:41:55;;;;;;;29.98;14.13;;;;;;;4.78;95.42;102829.50;4957838;28;20676;-47
2021/03/01 07:44:30;;;;;;;32.75;15.88;;;;;;;5.08;92.45;102831.16;4955051;28;20047;-43
2021/03/01 07:46:59;;;;;;;30.80;15.13;;;;;;;4.88;92.75;102825.19;4962602;28;20038;-52
2021/03/01 07:49:44;;;;;;;29.45;15.43;;;;;;;4.65;94.55;102824.16;4955045;28;20132;-46
2021/03/01 07:52:20;;;;;;;29.40;16.23;;;;;;;4.51;96.91;102822.97;4954774;28;20046;-50
2021/03/01 07:54:56;;;;;;;26.20;14.63;;;;;;;5.02;94.50;102825.56;4956479;28;20504;-48
2021/03/01 07:57:24;;;;;;;28.63;14.38;;;;;;;5.04;93.74;102823.16;4955286;28;20055;-48
2021/03/01 08:00:02;;;;;;;33.17;15.40;;;;;;;5.10;94.14;102822.00;4957383;28;20054;-51
2021/03/01 08:02:33;;;;;;;29.25;14.50;;;;;;;5.11;93.35;102816.16;4951744;28;20074;-51
2021/03/01 08:05:19;;;;;;;27.67;15.15;;;;;;;5.42;92.55;102815.22;4954571;28;20126;-46
2021/03/01 08:07:46;;;;;;;28.92;12.70;;;;;;;5.67;89.59;102824.03;4956063;28;20062;-52
2021/03/01 08:10:27;;;;;;;26.35;13.73;;;;;;;5.54;89.10;102828.91;4960028;28;20054;-44
2021/03/01 08:12:56;;;;;;;26.15;13.93;;;;;;;5.31;91.98;102827.03;4957629;28;20047;-51
2021/03/01 08:15:28;;;;;;;26.52;13.95;;;;;;;5.63;89.19;102825.44;4954774;28;20047;-45
2021/03/01 08:17:56;;;;;;;26.13;13.35;;;;;;;5.08;92.59;102833.69;4957197;28;20043;-48
2021/03/01 08:20:23;;;;;;;25.80;14.55;;;;;;;5.33;91.64;102841.66;4954643;28;20172;-51
2021/03/01 08:23:19;;;;;;;26.55;13.57;;;;;;;5.58;89.70;102848.72;4956594;28;20055;-48
2021/03/01 08:25:48;;;;;;;27.80;14.00;;;;;;;5.48;89.73;102842.00;4955443;28;20050;-46
2021/03/01 08:28:17;;;;;;;25.83;13.27;;;;;;;5.48;90.01;102841.13;4955514;28;20042;-47
2021/03/01 08:30:48;;;;;;;25.33;13.77;;;;;;;5.91;87.18;102845.44;4955930;28;20055;-50
2021/03/01 08:33:15;;;;;;;24.92;13.38;;;;;;;6.50;85.33;102844.16;4955595;28;20054;-43
2021/03/01 08:35:46;;;;;;;23.13;13.30;;;;;;;6.45;85.21;102842.03;4955190;28;20113;-51
2021/03/01 08:38:15;;;;;;;24.20;13.43;;;;;;;6.15;86.85;102838.91;4959555;28;20051;-42
2021/03/01 08:40:52;;;;;;;23.45;13.98;;;;;;;5.75;87.06;102842.44;4955174;28;20043;-48
2021/03/01 08:43:31;;;;;;;24.67;13.35;;;;;;;5.74;87.79;102843.22;4957995;28;20054;-46
2021/03/01 08:45:58;;;;;;;24.25;14.15;;;;;;;6.67;83.68;102836.91;4961339;28;20050;-48
2021/03/01 08:48:26;;;;;;;22.40;12.70;;;;;;;6.44;84.43;102846.22;4953515;28;20054;-51
2021/03/01 08:50:54;;;;;;;23.85;13.15;;;;;;;6.32;85.62;102841.06;4956596;28;20384;-48
2021/03/01 08:53:25;;;;;;;22.10;13.32;;;;;;;6.35;83.61;102846.41;4953930;28;20165;-47
2021/03/01 08:55:53;;;;;;;23.48;12.60;;;;;;;6.67;82.87;102852.19;4956322;28;20859;-48
2021/03/01 08:58:20;;;;;;;24.25;13.15;;;;;;;6.67;82.53;102853.09;4954542;28;20053;-43
2021/03/01 09:00:58;;;;;;;20.58;11.88;;;;;;;6.66;84.93;102847.88;4955444;28;20059;-44
2021/03/01 09:03:26;;;;;;;18.65;11.68;;;;;;;6.43;81.60;102859.72;4953632;28;20051;-50
2021/03/01 09:06:04;;;;;;;20.00;11.48;;;;;;;6.74;81.29;102860.41;4960503;28;20051;-43
2021/03/01 09:08:45;;;;;;;21.52;11.80;;;;;;;6.59;83.52;102859.25;4957612;28;20070;-49
2021/03/01 09:11:25;;;;;;;19.05;11.10;;;;;;;6.47;82.86;102865.91;4954919;28;20487;-46
2021/03/01 09:13:54;;;;;;;14.77;9.52;;;;;;;6.86;80.55;102860.47;4956265;28;20066;-50
2021/03/01 09:16:23;;;;;;;14.43;9.40;;;;;;;6.93;78.97;102875.41;4954503;28;20107;-46
2021/03/01 09:19:00;;;;;;;13.57;8.80;;;;;;;6.69;76.43;102876.09;4956101;28;20568;-45
2021/03/01 09:21:28;;;;;;;15.75;9.38;;;;;;;6.54;77.67;102875.81;4954668;28;20090;-46
2021/03/01 09:23:57;;;;;;;17.65;9.10;;;;;;;6.67;76.95;102878.53;4956520;28;20061;-44
2021/03/01 09:26:31;;;;;;;15.00;9.30;;;;;;;6.55;77.57;102875.03;4953281;28;20567;-46
2021/03/01 09:29:19;;;;;;;18.30;10.35;;;;;;;7.13;76.26;102884.56;4953308;28;20050;-45
2021/03/01 09:31:53;;;;;;;18.75;10.52;;;;;;;6.60;76.45;102872.06;4955045;28;20051;-45
2021/03/01 09:34:25;;;;;;;14.63;9.47;;;;;;;6.69;77.20;102876.97;4956898;28;20105;-49
2021/03/01 09:37:08;;;;;;;14.65;9.55;;;;;;;7.09;74.71;102886.00;4952826;28;20134;-48
2021/03/01 09:39:38;;;;;;;15.82;9.80;;;;;;;6.85;76.87;102884.16;4957757;28;20106;-52
2021/03/01 09:42:05;;;;;;;18.63;11.38;;;;;;;6.84;75.71;102887.44;4954537;28;20074;-46
2021/03/01 09:44:35;;;;;;;17.27;10.25;;;;;;;7.22;75.01;102884.38;4952995;28;20150;-42
2021/03/01 09:47:06;;;;;;;15.90;9.63;;;;;;;7.18;73.89;102880.72;4959218;28;20074;-47
2021/03/01 09:49:36;;;;;;;17.35;10.50;;;;;;;7.24;73.88;102877.72;4950747;28;20130;-48
2021/03/01 09:52:04;;;;;;;16.42;10.27;;;;;;;6.80;77.38;102890.56;4963794;28;20659;-50
2021/03/01 09:54:31;;;;;;;19.02;10.63;;;;;;;6.98;75.39;102889.41;4953723;28;20480;-52
2021/03/01 09:57:05;;;;;;;15.18;10.00;;;;;;;7.00;75.49;102882.75;4955245;28;20062;-44
2021/03/01 09:59:39;;;;;;;15.60;9.63;;;;;;;6.68;75.64;102876.88;4950425;28;20146;-46
2021/03/01 10:02:12;;;;;;;14.65;10.13;;;;;;;6.90;75.67;102877.75;4959539;28;20129;-50
2021/03/01 10:04:40;;;;;;;20.58;12.65;;;;;;;6.76;76.43;102880.91;4953725;28;20055;-49
2021/03/01 10:07:23;;;;;;;17.17;9.88;;;;;;;7.30;74.27;102888.34;4957211;28;20058;-49
2021/03/01 10:09:52;;;;;;;15.95;10.02;;;;;;;7.20;73.82;102894.44;4955882;28;20046;-47
2021/03/01 10:12:21;;;;;;;15.65;9.65;;;;;;;7.56;72.85;102893.72;4963027;28;20507;-48
2021/03/01 10:14:55;;;;;;;18.63;11.02;;;;;;;7.50;72.27;102897.50;4958224;28;20075;-47
2021/03/01 10:17:27;;;;;;;14.63;9.77;;;;;;;7.55;72.85;102891.94;4960044;28;20055;-48
2021/03/01 10:20:04;;;;;;;15.27;9.75;;;;;;;7.48;73.17;102892.25;4959270;28;20588;-50
2021/03/01 10:22:30;;;;;;;16.83;9.98;;;;;;;7.46;73.54;102888.72;4956381;28;20035;-46
2021/03/01 10:24:57;;;;;;;16.27;10.13;;;;;;;7.17;73.10;102886.56;4955611;28;20061;-47
2021/03/01 10:27:35;;;;;;;16.65;10.25;;;;;;;7.50;72.43;102882.19;4956675;28;20074;-43
2021/03/01 10:30:08;;;;;;;16.75;10.82;;;;;;;6.86;75.59;102886.81;4956096;28;20051;-45
2021/03/01 10:32:37;;;;;;;20.30;11.48;;;;;;;7.02;74.80;102883.75;4957196;28;20051;-45
2021/03/01 10:35:17;;;;;;;14.82;10.90;;;;;;;6.99;74.34;102885.19;4958917;28;20053;-47
2021/03/01 10:38:03;;;;;;;17.90;10.73;;;;;;;7.53;73.17;102890.94;4963348;28;20042;-44
2021/03/01 10:40:30;;;;;;;18.38;10.48;;;;;;;7.24;73.75;102885.38;4960455;28;20047;-47
2021/03/01 10:42:57;;;;;;;17.77;11.07;;;;;;;7.07;75.15;102895.19;4957284;28;20516;-45
2021/03/01 10:45:24;;;;;;;19.75;11.10;;;;;;;7.48;74.48;102896.47;4956499;28;20134;-47
2021/03/01 10:48:01;;;;;;;17.90;11.00;;;;;;;7.64;72.87;102890.06;4958183;28;20046;-48
2021/03/01 10:50:29;;;;;;;19.20;11.40;;;;;;;7.38;73.04;102892.38;4950867;28;20063;-46
2021/03/01 10:52:55;;;;;;;22.00;11.18;;;;;;;7.80;71.32;102897.16;4952623;28;20536;-47
2021/03/01 10:55:22;;;;;;;19.05;11.70;;;;;;;8.21;70.66;102896.69;4950295;28;20051;-51
2021/03/01 10:57:48;;;;;;;18.75;11.68;;;;;;;8.12;71.22;102896.03;4951689;28;20055;-47
2021/03/01 11:00:15;;;;;;;20.08;10.10;;;;;;;8.26;70.30;102895.34;4950536;28;20043;-47
2021/03/01 11:02:43;;;;;;;16.27;9.75;;;;;;;8.29;69.82;102890.47;4952133;28;20066;-48
2021/03/01 11:05:11;;;;;;;16.60;9.13;;;;;;;8.11;69.33;102884.94;4950368;28;20051;-52
2021/03/01 11:07:37;;;;;;;15.05;9.15;;;;;;;7.75;69.79;102882.31;4951071;28;20059;-47
2021/03/01 11:10:04;;;;;;;17.20;11.02;;;;;;;7.74;72.08;102881.44;4950718;28;20051;-49
2021/03/01 11:12:31;;;;;;;16.45;10.05;;;;;;;8.57;69.30;102885.66;4950752;28;20051;-46
2021/03/01 11:14:57;;;;;;;15.52;10.13;;;;;;;7.98;68.07;102876.31;4952531;28;20051;-47
2021/03/01 11:17:26;;;;;;;17.48;9.45;;;;;;;8.35;68.69;102880.69;4950098;28;20054;-48
2021/03/01 11:19:53;;;;;;;17.30;9.95;;;;;;;8.41;69.35;102882.78;4951452;28;20062;-48
2021/03/01 11:22:22;;;;;;;14.55;10.32;;;;;;;8.54;70.22;102881.97;4950274;28;20101;-50
2021/03/01 11:24:49;;;;;;;18.63;9.63;;;;;;;8.63;68.72;102892.84;4951693;28;20138;-48
2021/03/01 11:27:16;;;;;;;13.50;9.52;;;;;;;8.58;67.36;102882.31;4950144;28;20047;-46